Curtis, Michigan
Current Conditions -  °F | °C
As of 9:55 AM on Friday 28 Nov 2014 (Local Time) from KERY Reporting Station
Scattered Clouds Scattered Clouds  
Wind Chill: -1°   Ceiling: Unl
Heat Index: 11°   Visibility: 10mi
Dew Point:   Wind: 8mph
Humidity: 76%   Direction: 240°WSW
Pressure: 30.17"   Gusts: NA
Location:  46.2°N, 85.73°W
Report Text: KERY 281455Z AUTO 24007KT 10SM SCT120 M12/M15 A3017 RMK AO2 T11161151
Loading
Personal Weather Stations






























Interactive Weather Map New forecast layout! Learn more

10-Day Weather Forecast

Advertisements
Track Severe Weather on mobile